Time;durP1;ratioP1;P1;durP2;ratioP2;P2;SDS_P1;SDS_P2;PMS_P1;PMS_P2;Temp;Humidity;BMP_temperature;BMP_pressure;BME280_temperature;BME280_humidity;BME280_pressure;Samples;Min_cycle;Max_cycle;Signal;HPM_P1;HPM_P2
2023/06/29 00:01:03;;;;;;;15.90;10.40;;;;;;;;;;6204253;23;20017;-87
2023/06/29 00:03:30;;;;;;;17.60;11.25;;;;;;;;;;6207852;23;20019;-88
2023/06/29 00:05:57;;;;;;;16.48;10.75;;;;;;;;;;6181478;23;20020;-88
2023/06/29 00:08:24;;;;;;;17.73;10.98;;;;;;;;;;6206223;23;20028;-88
2023/06/29 00:10:51;;;;;;;16.58;11.55;;;;;;;;;;6206378;23;20390;-87
2023/06/29 00:13:17;;;;;;;16.70;11.10;;;;;;;;;;6206708;23;20066;-87
2023/06/29 00:15:43;;;;;;;19.15;12.02;;;;;;;;;;6205442;23;20021;-87
2023/06/29 00:18:09;;;;;;;17.45;12.10;;;;;;;;;;6205950;23;20017;-88
2023/06/29 00:20:35;;;;;;;16.85;10.80;;;;;;;;;;6207850;23;20264;-87
2023/06/29 00:23:02;;;;;;;16.10;11.88;;;;;;;;;;6204967;23;20370;-87
2023/06/29 00:25:28;;;;;;;19.08;11.77;;;;;;;;;;6205916;23;20035;-87
2023/06/29 00:27:54;;;;;;;15.68;11.60;;;;;;;;;;6207190;23;20405;-88
2023/06/29 00:30:20;;;;;;;21.45;13.13;;;;;;;;;;6206208;23;20111;-88
2023/06/29 00:32:47;;;;;;;21.02;12.02;;;;;;;;;;6206261;23;20304;-87
2023/06/29 00:35:13;;;;;;;21.25;12.25;;;;;;;;;;6206865;23;20088;-87
2023/06/29 00:37:42;;;;;;;17.98;12.02;;;;;;;;;;6207850;23;20020;-87
2023/06/29 00:40:09;;;;;;;17.55;10.35;;;;;;;;;;6207143;23;20083;-88
2023/06/29 00:42:35;;;;;;;18.38;11.80;;;;;;;;;;6205354;23;20054;-87
2023/06/29 00:45:02;;;;;;;17.02;11.05;;;;;;;;;;6206283;23;20012;-88
2023/06/29 00:47:29;;;;;;;18.80;11.75;;;;;;;;;;6205993;23;20017;-87
2023/06/29 00:49:55;;;;;;;21.08;11.98;;;;;;;;;;6206242;23;20016;-88
2023/06/29 00:52:22;;;;;;;18.42;12.10;;;;;;;;;;6205115;23;20023;-88
2023/06/29 00:54:48;;;;;;;17.50;11.75;;;;;;;;;;6205082;23;20351;-88
2023/06/29 00:57:14;;;;;;;15.90;11.40;;;;;;;;;;6205445;23;20339;-88
2023/06/29 00:59:40;;;;;;;16.23;11.68;;;;;;;;;;6204130;23;20406;-88
2023/06/29 01:02:08;;;;;;;17.58;12.02;;;;;;;;;;6207326;23;20045;-88
2023/06/29 01:04:36;;;;;;;21.50;12.48;;;;;;;;;;6209287;23;20329;-88
2023/06/29 01:07:04;;;;;;;16.80;12.05;;;;;;;;;;6182352;23;20024;-88
2023/06/29 01:09:31;;;;;;;22.75;12.00;;;;;;;;;;6209670;23;20020;-88
2023/06/29 01:11:58;;;;;;;16.42;11.85;;;;;;;;;;6208670;23;20017;-87
2023/06/29 01:14:25;;;;;;;14.45;11.57;;;;;;;;;;6206176;23;20433;-88
2023/06/29 01:16:51;;;;;;;16.05;11.60;;;;;;;;;;6209384;23;20017;-88
2023/06/29 01:19:23;;;;;;;15.23;10.70;;;;;;;;;;6207468;23;20055;-88
2023/06/29 01:21:54;;;;;;;15.85;12.13;;;;;;;;;;6209634;23;20385;-87
2023/06/29 01:24:22;;;;;;;19.60;12.20;;;;;;;;;;6208752;23;20048;-88
2023/06/29 01:26:49;;;;;;;19.25;11.80;;;;;;;;;;6207117;23;20023;-88
2023/06/29 01:29:15;;;;;;;16.08;12.23;;;;;;;;;;6180793;23;20434;-88
2023/06/29 01:31:41;;;;;;;17.63;11.95;;;;;;;;;;6209422;23;20055;-89
2023/06/29 01:34:07;;;;;;;21.92;12.73;;;;;;;;;;6206948;23;20016;-88
2023/06/29 01:36:42;;;;;;;18.10;12.63;;;;;;;;;;6209553;23;20354;-87
2023/06/29 01:39:12;;;;;;;18.75;11.50;;;;;;;;;;6207422;23;20020;-88
2023/06/29 01:41:40;;;;;;;17.20;12.30;;;;;;;;;;6208264;23;20019;-88
2023/06/29 01:44:08;;;;;;;16.90;12.18;;;;;;;;;;6206564;23;20398;-88
2023/06/29 01:46:35;;;;;;;18.40;12.68;;;;;;;;;;6207398;23;20016;-88
2023/06/29 01:49:01;;;;;;;20.98;12.85;;;;;;;;;;6210625;23;20013;-88
2023/06/29 01:51:27;;;;;;;17.83;12.35;;;;;;;;;;6207874;23;20027;-88
2023/06/29 01:53:53;;;;;;;18.88;13.18;;;;;;;;;;6207833;23;20021;-88
2023/06/29 01:56:19;;;;;;;20.88;12.80;;;;;;;;;;6208228;23;20438;-88
2023/06/29 01:58:45;;;;;;;15.55;11.48;;;;;;;;;;6205968;23;20477;-88
2023/06/29 02:01:11;;;;;;;20.67;12.48;;;;;;;;;;6207684;23;20032;-88
2023/06/29 02:03:37;;;;;;;17.92;12.27;;;;;;;;;;6208108;23;20021;-88
2023/06/29 02:06:04;;;;;;;20.58;12.70;;;;;;;;;;6207431;23;20083;-88
2023/06/29 02:08:30;;;;;;;19.35;13.40;;;;;;;;;;6207292;23;20026;-88
2023/06/29 02:10:56;;;;;;;14.98;10.95;;;;;;;;;;6207790;23;20017;-88
2023/06/29 02:13:22;;;;;;;20.27;12.68;;;;;;;;;;6206754;23;20104;-88
2023/06/29 02:15:48;;;;;;;16.30;11.27;;;;;;;;;;6207558;23;20087;-88
2023/06/29 02:18:14;;;;;;;19.92;13.18;;;;;;;;;;6208380;23;20016;-88
2023/06/29 02:20:40;;;;;;;18.58;12.10;;;;;;;;;;6207472;23;20154;-88
2023/06/29 02:23:06;;;;;;;16.95;10.85;;;;;;;;;;6209474;23;20057;-88
2023/06/29 02:25:32;;;;;;;16.50;11.52;;;;;;;;;;6206745;23;20052;-88
2023/06/29 02:27:58;;;;;;;18.40;11.82;;;;;;;;;;6181547;23;20520;-88
2023/06/29 02:30:24;;;;;;;19.23;12.27;;;;;;;;;;6208114;23;20021;-88
2023/06/29 02:32:50;;;;;;;17.48;11.60;;;;;;;;;;6208012;23;20020;-88
2023/06/29 02:35:16;;;;;;;17.17;12.50;;;;;;;;;;6206557;23;20031;-88
2023/06/29 02:37:42;;;;;;;16.17;11.25;;;;;;;;;;6207347;23;20013;-88
2023/06/29 02:40:08;;;;;;;16.20;11.82;;;;;;;;;;6206051;23;20015;-87
2023/06/29 02:42:36;;;;;;;17.35;12.48;;;;;;;;;;6207800;23;20086;-88
2023/06/29 02:45:02;;;;;;;18.83;11.65;;;;;;;;;;6209254;23;20315;-88
2023/06/29 02:47:28;;;;;;;18.10;12.52;;;;;;;;;;6207092;23;20468;-88
2023/06/29 02:49:55;;;;;;;18.08;13.13;;;;;;;;;;6209046;23;20088;-87
2023/06/29 02:52:21;;;;;;;18.73;11.93;;;;;;;;;;6206003;23;20143;-87
2023/06/29 02:54:47;;;;;;;19.23;13.30;;;;;;;;;;6206397;23;20044;-88
2023/06/29 02:57:13;;;;;;;18.48;12.10;;;;;;;;;;6208715;23;20024;-88
2023/06/29 02:59:39;;;;;;;20.92;12.52;;;;;;;;;;6208838;23;20017;-88
2023/06/29 03:02:05;;;;;;;20.85;11.98;;;;;;;;;;6208808;23;20095;-88
2023/06/29 03:04:31;;;;;;;20.48;12.50;;;;;;;;;;6208940;23;20017;-88
2023/06/29 03:06:57;;;;;;;18.15;11.90;;;;;;;;;;6209090;23;20042;-88
2023/06/29 03:09:23;;;;;;;16.42;11.90;;;;;;;;;;6205788;23;20028;-88
2023/06/29 03:11:49;;;;;;;19.83;12.82;;;;;;;;;;6207257;23;20052;-88
2023/06/29 03:14:15;;;;;;;17.67;12.00;;;;;;;;;;6207281;23;20032;-87
2023/06/29 03:16:42;;;;;;;18.83;12.40;;;;;;;;;;6208572;23;20021;-88
2023/06/29 03:19:08;;;;;;;16.75;12.15;;;;;;;;;;6208253;23;20067;-87
2023/06/29 03:21:34;;;;;;;18.65;12.43;;;;;;;;;;6206765;23;20088;-88
2023/06/29 03:24:00;;;;;;;20.38;12.43;;;;;;;;;;6205518;23;20016;-87
2023/06/29 03:26:26;;;;;;;19.90;12.48;;;;;;;;;;6206673;23;20090;-87
2023/06/29 03:28:52;;;;;;;18.95;14.18;;;;;;;;;;6207084;23;20445;-87
2023/06/29 03:31:18;;;;;;;17.33;12.85;;;;;;;;;;6208613;23;20020;-87
2023/06/29 03:33:44;;;;;;;18.10;12.30;;;;;;;;;;6208453;23;20018;-88
2023/06/29 03:36:11;;;;;;;19.38;13.07;;;;;;;;;;6206351;23;20031;-87
2023/06/29 03:38:37;;;;;;;21.90;13.27;;;;;;;;;;6207021;23;20350;-87
2023/06/29 03:41:03;;;;;;;20.55;12.52;;;;;;;;;;6206698;23;20453;-87
2023/06/29 03:43:29;;;;;;;21.55;14.13;;;;;;;;;;6208603;23;20315;-88
2023/06/29 03:45:57;;;;;;;21.00;12.77;;;;;;;;;;6205510;23;20027;-87
2023/06/29 03:48:27;;;;;;;20.55;14.38;;;;;;;;;;6207190;23;20020;-88
2023/06/29 03:50:53;;;;;;;18.23;13.07;;;;;;;;;;6208272;23;20020;-87
2023/06/29 03:53:19;;;;;;;22.13;13.43;;;;;;;;;;6205816;23;20055;-88
2023/06/29 03:55:45;;;;;;;21.13;12.82;;;;;;;;;;6204818;23;20024;-87
2023/06/29 03:58:11;;;;;;;17.15;11.43;;;;;;;;;;6208250;23;20016;-87
2023/06/29 04:00:37;;;;;;;18.13;12.43;;;;;;;;;;6208887;23;20343;-87
2023/06/29 04:03:03;;;;;;;21.38;12.38;;;;;;;;;;6207401;23;20019;-87
2023/06/29 04:05:29;;;;;;;15.85;11.45;;;;;;;;;;6207616;23;20334;-87
2023/06/29 04:07:55;;;;;;;17.65;12.82;;;;;;;;;;6205340;23;20024;-88
2023/06/29 04:10:21;;;;;;;18.13;12.57;;;;;;;;;;6205847;23;20024;-87
2023/06/29 04:12:47;;;;;;;22.40;13.77;;;;;;;;;;6205462;23;20052;-87
2023/06/29 04:15:13;;;;;;;19.15;12.80;;;;;;;;;;6204370;23;20017;-87
2023/06/29 04:17:39;;;;;;;21.55;14.05;;;;;;;;;;6204426;23;20055;-88
2023/06/29 04:20:05;;;;;;;22.42;12.98;;;;;;;;;;6206417;23;20021;-88
2023/06/29 04:22:31;;;;;;;19.33;13.40;;;;;;;;;;6205819;23;20048;-87
2023/06/29 04:24:57;;;;;;;18.25;12.32;;;;;;;;;;6207923;23;20074;-87
2023/06/29 04:27:24;;;;;;;21.50;13.80;;;;;;;;;;6205095;23;20079;-87
2023/06/29 04:29:50;;;;;;;18.02;12.77;;;;;;;;;;6205477;23;20024;-87
2023/06/29 04:32:16;;;;;;;18.63;13.18;;;;;;;;;;6208175;23;20015;-87
2023/06/29 04:34:42;;;;;;;19.05;12.85;;;;;;;;;;6205785;23;20024;-87
2023/06/29 04:37:08;;;;;;;19.08;12.52;;;;;;;;;;6205601;23;20066;-87
2023/06/29 04:39:34;;;;;;;22.55;14.30;;;;;;;;;;6205707;23;20020;-88
2023/06/29 04:42:04;;;;;;;19.08;13.15;;;;;;;;;;6207821;23;20012;-87
2023/06/29 04:44:31;;;;;;;20.50;13.65;;;;;;;;;;6206059;23;20403;-88
2023/06/29 04:47:00;;;;;;;18.40;12.57;;;;;;;;;;6207687;23;20016;-87
2023/06/29 04:49:27;;;;;;;20.40;13.32;;;;;;;;;;6205765;23;20027;-86
2023/06/29 04:51:59;;;;;;;20.17;13.55;;;;;;;;;;6206843;23;20311;-87
2023/06/29 04:54:25;;;;;;;21.27;13.60;;;;;;;;;;6205765;23;20016;-87
2023/06/29 04:56:51;;;;;;;21.00;13.68;;;;;;;;;;6203189;23;20024;-87
2023/06/29 04:59:17;;;;;;;24.60;13.93;;;;;;;;;;6207253;23;20095;-87
2023/06/29 05:01:43;;;;;;;23.58;13.52;;;;;;;;;;6205977;23;20024;-87
2023/06/29 05:04:09;;;;;;;21.42;13.55;;;;;;;;;;6205337;23;20020;-87
2023/06/29 05:06:35;;;;;;;19.27;14.13;;;;;;;;;;6206876;23;20013;-87
2023/06/29 05:09:01;;;;;;;19.10;12.75;;;;;;;;;;6203333;23;20501;-87
2023/06/29 05:11:27;;;;;;;22.50;14.38;;;;;;;;;;6204361;23;20020;-85
2023/06/29 05:13:53;;;;;;;20.40;13.00;;;;;;;;;;6207104;23;20767;-83
2023/06/29 05:16:19;;;;;;;21.55;14.13;;;;;;;;;;6205612;23;20021;-84
2023/06/29 05:18:45;;;;;;;20.42;13.15;;;;;;;;;;6205143;23;20017;-83
2023/06/29 05:21:12;;;;;;;19.98;14.05;;;;;;;;;;6204864;23;20016;-83
2023/06/29 05:23:38;;;;;;;21.58;13.18;;;;;;;;;;6207703;23;20315;-82
2023/06/29 05:26:04;;;;;;;22.05;13.68;;;;;;;;;;6206393;23;20039;-84
2023/06/29 05:28:31;;;;;;;24.67;14.05;;;;;;;;;;6205015;23;20020;-84
2023/06/29 05:30:57;;;;;;;21.20;13.90;;;;;;;;;;6207314;23;20518;-84
2023/06/29 05:33:24;;;;;;;19.75;13.18;;;;;;;;;;6204014;23;20025;-84
2023/06/29 05:35:50;;;;;;;20.98;12.52;;;;;;;;;;6201902;23;20021;-84
2023/06/29 05:38:16;;;;;;;22.42;14.57;;;;;;;;;;6205840;23;20052;-84
2023/06/29 05:40:42;;;;;;;21.77;14.25;;;;;;;;;;6203505;23;20044;-85
2023/06/29 05:43:08;;;;;;;20.40;13.63;;;;;;;;;;6205472;23;20017;-84
2023/06/29 05:45:34;;;;;;;20.08;13.63;;;;;;;;;;6205776;23;20690;-85
2023/06/29 05:48:00;;;;;;;26.48;13.70;;;;;;;;;;6207470;23;20095;-85
2023/06/29 05:50:26;;;;;;;22.23;13.77;;;;;;;;;;6206348;23;20020;-85
2023/06/29 05:52:52;;;;;;;19.75;12.50;;;;;;;;;;6207342;23;20096;-85
2023/06/29 05:55:19;;;;;;;22.10;14.35;;;;;;;;;;6209435;23;20307;-85
2023/06/29 05:57:45;;;;;;;24.67;13.68;;;;;;;;;;6206572;23;20088;-84
2023/06/29 06:00:12;;;;;;;23.35;13.68;;;;;;;;;;6207600;23;20092;-84
2023/06/29 06:02:40;;;;;;;19.75;12.52;;;;;;;;;;6208017;23;20071;-84
2023/06/29 06:05:07;;;;;;;28.42;14.27;;;;;;;;;;6208711;23;20013;-84
2023/06/29 06:07:34;;;;;;;20.00;12.82;;;;;;;;;;6207034;23;20023;-84
2023/06/29 06:10:00;;;;;;;19.33;13.02;;;;;;;;;;6208527;23;20020;-84
2023/06/29 06:12:26;;;;;;;18.05;12.80;;;;;;;;;;6206477;23;20016;-84
2023/06/29 06:14:52;;;;;;;19.35;12.30;;;;;;;;;;6207094;23;20016;-84
2023/06/29 06:17:18;;;;;;;19.75;13.75;;;;;;;;;;6206336;23;20617;-84
2023/06/29 06:19:44;;;;;;;21.33;13.63;;;;;;;;;;6207202;23;20019;-84
2023/06/29 06:22:10;;;;;;;20.85;11.95;;;;;;;;;;6208279;23;20335;-84
2023/06/29 06:24:36;;;;;;;23.08;12.70;;;;;;;;;;6208652;23;20024;-84
2023/06/29 06:27:02;;;;;;;19.70;13.30;;;;;;;;;;6205139;23;20021;-82
2023/06/29 06:29:29;;;;;;;22.90;13.23;;;;;;;;;;6208133;23;20022;-82
2023/06/29 06:31:55;;;;;;;21.58;12.57;;;;;;;;;;6205728;23;20385;-83
2023/06/29 06:34:21;;;;;;;18.13;12.48;;;;;;;;;;6206527;23;20016;-83
2023/06/29 06:36:48;;;;;;;19.67;12.07;;;;;;;;;;6209242;23;20019;-83
2023/06/29 06:39:18;;;;;;;18.48;12.32;;;;;;;;;;6205902;23;20023;-82
2023/06/29 06:41:44;;;;;;;21.92;14.10;;;;;;;;;;6202735;23;20012;-83
2023/06/29 06:44:10;;;;;;;23.02;12.85;;;;;;;;;;6207019;23;20017;-82
2023/06/29 06:46:36;;;;;;;22.38;13.68;;;;;;;;;;6206918;23;20013;-83
2023/06/29 06:49:02;;;;;;;20.88;13.40;;;;;;;;;;6206078;23;20056;-83
2023/06/29 06:51:29;;;;;;;20.13;12.40;;;;;;;;;;6206878;23;20070;-82
2023/06/29 06:53:55;;;;;;;20.02;13.23;;;;;;;;;;6205198;23;20016;-82
2023/06/29 06:56:24;;;;;;;15.95;10.70;;;;;;;;;;6204190;23;20012;-82
2023/06/29 06:58:50;;;;;;;20.70;12.68;;;;;;;;;;6204439;23;20070;-84
2023/06/29 07:01:17;;;;;;;19.55;12.60;;;;;;;;;;6206186;23;20016;-82
2023/06/29 07:03:43;;;;;;;19.25;11.80;;;;;;;;;;6208070;23;20009;-82
2023/06/29 07:06:09;;;;;;;16.95;11.15;;;;;;;;;;6180217;23;20012;-83
2023/06/29 07:08:35;;;;;;;20.67;12.77;;;;;;;;;;6208451;23;20024;-82
2023/06/29 07:11:01;;;;;;;20.08;12.85;;;;;;;;;;6205817;23;20106;-82
2023/06/29 07:13:27;;;;;;;18.20;11.50;;;;;;;;;;6207369;23;20016;-82
2023/06/29 07:15:55;;;;;;;19.83;12.45;;;;;;;;;;6207449;23;20071;-82
2023/06/29 07:18:21;;;;;;;20.38;11.93;;;;;;;;;;6206547;23;20017;-84
2023/06/29 07:20:48;;;;;;;20.35;13.07;;;;;;;;;;6208024;23;20017;-87
2023/06/29 07:23:15;;;;;;;21.23;12.50;;;;;;;;;;6205556;23;20023;-85
2023/06/29 07:25:41;;;;;;;20.90;13.65;;;;;;;;;;6205720;23;20021;-82
2023/06/29 07:28:07;;;;;;;18.48;12.27;;;;;;;;;;6206034;23;20020;-81
2023/06/29 07:30:34;;;;;;;18.98;11.93;;;;;;;;;;6181461;23;20028;-83
2023/06/29 07:33:00;;;;;;;19.83;12.68;;;;;;;;;;6206737;23;20453;-83
2023/06/29 07:35:28;;;;;;;20.98;12.82;;;;;;;;;;6206028;23;20100;-82
2023/06/29 07:37:54;;;;;;;22.70;13.90;;;;;;;;;;6206261;23;20028;-84
2023/06/29 07:40:20;;;;;;;22.23;15.40;;;;;;;;;;6206221;23;20440;-84
2023/06/29 07:42:47;;;;;;;22.83;13.65;;;;;;;;;;6205605;23;20043;-83
2023/06/29 07:45:13;;;;;;;23.55;14.60;;;;;;;;;;6205119;23;20012;-83
2023/06/29 07:47:39;;;;;;;22.70;14.68;;;;;;;;;;6206172;23;20080;-82
2023/06/29 07:50:06;;;;;;;21.77;14.65;;;;;;;;;;6208494;23;20051;-83
2023/06/29 07:52:32;;;;;;;24.70;15.02;;;;;;;;;;6206033;23;20473;-83
2023/06/29 07:54:58;;;;;;;24.45;15.00;;;;;;;;;;6206507;23;20338;-83
2023/06/29 07:57:24;;;;;;;23.70;14.88;;;;;;;;;;6204820;23;20598;-81
2023/06/29 07:59:50;;;;;;;25.27;16.73;;;;;;;;;;6206178;23;20017;-79
2023/06/29 08:02:16;;;;;;;23.98;16.92;;;;;;;;;;6205366;23;20023;-81
2023/06/29 08:04:42;;;;;;;27.27;16.63;;;;;;;;;;6205598;23;20040;-82
2023/06/29 08:07:08;;;;;;;24.25;15.02;;;;;;;;;;6205836;23;20024;-82
2023/06/29 08:09:34;;;;;;;24.92;15.25;;;;;;;;;;6207927;23;20086;-83
2023/06/29 08:12:00;;;;;;;25.95;15.70;;;;;;;;;;6205167;23;20020;-84
2023/06/29 08:14:26;;;;;;;26.58;16.13;;;;;;;;;;6205352;23;20017;-84
2023/06/29 08:16:52;;;;;;;27.98;16.42;;;;;;;;;;6205893;23;20028;-84
2023/06/29 08:19:18;;;;;;;26.50;15.38;;;;;;;;;;6206868;23;20085;-85
2023/06/29 08:21:47;;;;;;;27.70;17.23;;;;;;;;;;6206695;23;20479;-83
2023/06/29 08:24:14;;;;;;;24.52;15.65;;;;;;;;;;6205881;23;20342;-83
2023/06/29 08:26:40;;;;;;;22.80;15.82;;;;;;;;;;6203565;23;20024;-84
2023/06/29 08:29:06;;;;;;;27.35;17.50;;;;;;;;;;6203953;23;20012;-82
2023/06/29 08:31:32;;;;;;;29.52;15.88;;;;;;;;;;6206517;23;20042;-84
2023/06/29 08:33:58;;;;;;;24.88;15.48;;;;;;;;;;6206971;23;20017;-85
2023/06/29 08:36:26;;;;;;;23.75;15.63;;;;;;;;;;6204451;23;20066;-84
2023/06/29 08:38:52;;;;;;;24.70;16.98;;;;;;;;;;6205303;23;20016;-83
2023/06/29 08:41:18;;;;;;;24.27;14.57;;;;;;;;;;6206885;23;20020;-85
2023/06/29 08:43:44;;;;;;;22.95;15.32;;;;;;;;;;6206921;23;20028;-90
2023/06/29 08:46:10;;;;;;;25.60;16.08;;;;;;;;;;6204295;23;20020;-86
2023/06/29 08:48:37;;;;;;;26.80;16.98;;;;;;;;;;6207019;23;20031;-88
2023/06/29 08:51:03;;;;;;;28.05;17.20;;;;;;;;;;6181251;23;20023;-87
2023/06/29 08:53:30;;;;;;;26.80;17.50;;;;;;;;;;6206283;23;20016;-87
2023/06/29 08:55:56;;;;;;;27.60;16.75;;;;;;;;;;6207479;23;20028;-86
2023/06/29 08:58:22;;;;;;;27.60;16.70;;;;;;;;;;6204381;23;20021;-87
2023/06/29 09:00:49;;;;;;;24.95;16.13;;;;;;;;;;6205373;23;20337;-86
2023/06/29 09:03:15;;;;;;;26.38;16.65;;;;;;;;;;6204236;23;20023;-90
2023/06/29 09:05:45;;;;;;;22.48;15.07;;;;;;;;;;6205877;23;20029;-88
2023/06/29 09:08:11;;;;;;;;;;;;;;;;;;6206631;23;20028;-89
2023/06/29 09:10:38;;;;;;;23.63;14.15;;;;;;;;;;6206064;23;19918;-90
2023/06/29 09:13:05;;;;;;;21.15;13.93;;;;;;;;;;6207306;23;20048;-90
2023/06/29 09:15:32;;;;;;;20.48;13.55;;;;;;;;;;6206119;23;20017;-89
2023/06/29 09:17:58;;;;;;;27.70;17.05;;;;;;;;;;6204937;23;20399;-90
2023/06/29 09:20:25;;;;;;;22.15;14.32;;;;;;;;;;6205192;23;20345;-89
2023/06/29 09:22:51;;;;;;;23.90;14.65;;;;;;;;;;6207369;23;20013;-89
2023/06/29 09:25:18;;;;;;;25.20;15.82;;;;;;;;;;6209905;23;20467;-88
2023/06/29 09:27:44;;;;;;;24.77;14.95;;;;;;;;;;6208131;23;20087;-88
2023/06/29 09:30:16;;;;;;;24.63;13.82;;;;;;;;;;6207877;23;20012;-88
2023/06/29 09:32:42;;;;;;;24.88;16.23;;;;;;;;;;6208038;23;20016;-89
2023/06/29 09:35:09;;;;;;;25.83;16.45;;;;;;;;;;6209731;23;20021;-88
2023/06/29 09:37:36;;;;;;;24.60;15.75;;;;;;;;;;6207298;23;20059;-88
2023/06/29 09:40:09;;;;;;;24.80;14.00;;;;;;;;;;6209812;23;20063;-89
2023/06/29 09:42:39;;;;;;;21.88;14.15;;;;;;;;;;6209120;23;20088;-90
2023/06/29 09:45:11;;;;;;;19.40;13.15;;;;;;;;;;6205853;23;20072;-85
2023/06/29 09:47:41;;;;;;;22.40;12.90;;;;;;;;;;6209274;23;20016;-88
2023/06/29 09:50:17;;;;;;;23.60;13.35;;;;;;;;;;6208216;23;20070;-86
2023/06/29 09:52:45;;;;;;;19.98;13.02;;;;;;;;;;6182404;23;20019;-85
2023/06/29 09:55:11;;;;;;;25.67;13.25;;;;;;;;;;6207198;23;20024;-89
2023/06/29 09:57:39;;;;;;;19.38;12.52;;;;;;;;;;6212744;23;20044;-94
2023/06/29 10:00:11;;;;;;;21.95;13.82;;;;;;;;;;6183238;23;20040;-92
2023/06/29 10:02:37;;;;;;;23.10;14.00;;;;;;;;;;6212205;23;20091;-95
2023/06/29 10:05:03;;;;;;;19.83;11.82;;;;;;;;;;6209808;23;20066;-89
2023/06/29 10:07:29;;;;;;;21.67;12.20;;;;;;;;;;6209795;23;20334;-91
2023/06/29 10:09:58;;;;;;;19.55;12.18;;;;;;;;;;6203167;23;20082;-88
2023/06/29 10:12:26;;;;;;;19.75;12.32;;;;;;;;;;6207086;23;20335;-89
2023/06/29 10:14:54;;;;;;;20.50;12.65;;;;;;;;;;6181893;23;20029;-88
2023/06/29 10:17:24;;;;;;;17.10;11.18;;;;;;;;;;6207847;23;20430;-87
2023/06/29 10:19:51;;;;;;;22.38;12.52;;;;;;;;;;6207296;23;20095;-87
2023/06/29 10:22:18;;;;;;;19.60;11.13;;;;;;;;;;6204817;23;20347;-86
2023/06/29 10:24:53;;;;;;;18.25;11.35;;;;;;;;;;6208248;23;20392;-81
2023/06/29 10:27:20;;;;;;;21.40;12.43;;;;;;;;;;6206986;23;20044;-83
2023/06/29 10:29:47;;;;;;;20.42;13.50;;;;;;;;;;6207102;23;20021;-83
2023/06/29 10:32:30;;;;;;;21.13;12.88;;;;;;;;;;6208937;23;20303;-83
2023/06/29 10:35:02;;;;;;;18.88;12.43;;;;;;;;;;6206218;23;20112;-84
2023/06/29 10:37:32;;;;;;;22.98;14.98;;;;;;;;;;6208323;23;20031;-83
2023/06/29 10:39:58;;;;;;;;;;;;;;;;;;6208068;23;20021;-83
2023/06/29 10:42:24;;;;;;;22.10;13.30;;;;;;;;;;6207012;23;19915;-84
2023/06/29 10:44:50;;;;;;;23.20;14.63;;;;;;;;;;6206585;23;20043;-84
2023/06/29 10:47:36;;;;;;;23.80;13.13;;;;;;;;;;6207126;23;20013;-82
2023/06/29 10:50:11;;;;;;;21.00;14.25;;;;;;;;;;6208464;23;20482;-84
2023/06/29 10:52:38;;;;;;;23.25;14.95;;;;;;;;;;6203596;23;20019;-84
2023/06/29 10:55:22;;;;;;;23.30;14.07;;;;;;;;;;6207994;23;20016;-82
2023/06/29 10:57:54;;;;;;;20.02;13.25;;;;;;;;;;6180504;23;20012;-85
2023/06/29 11:00:20;;;;;;;22.33;14.52;;;;;;;;;;6206706;23;20094;-87
2023/06/29 11:02:50;;;;;;;22.33;15.18;;;;;;;;;;6207102;23;20056;-85
2023/06/29 11:05:17;;;;;;;22.80;13.27;;;;;;;;;;6206503;23;20020;-85
2023/06/29 11:07:44;;;;;;;25.40;15.43;;;;;;;;;;6203791;23;20016;-85
2023/06/29 11:10:10;;;;;;;23.38;17.15;;;;;;;;;;6180489;23;20074;-85
2023/06/29 11:12:40;;;;;;;23.55;15.15;;;;;;;;;;6205346;23;20435;-81
2023/06/29 11:15:09;;;;;;;22.27;14.98;;;;;;;;;;6204088;23;20019;-82
2023/06/29 11:17:35;;;;;;;26.35;14.77;;;;;;;;;;6206786;23;20017;-81
2023/06/29 11:20:01;;;;;;;24.00;15.40;;;;;;;;;;6206469;23;20028;-81
2023/06/29 11:22:28;;;;;;;25.40;14.93;;;;;;;;;;6205765;23;20017;-81
2023/06/29 11:24:54;;;;;;;23.75;15.40;;;;;;;;;;6206157;23;20044;-81
2023/06/29 11:27:20;;;;;;;24.00;13.55;;;;;;;;;;6208216;23;20308;-80
2023/06/29 11:29:53;;;;;;;25.25;16.25;;;;;;;;;;6208207;23;20031;-81
2023/06/29 11:32:19;;;;;;;24.35;14.82;;;;;;;;;;6207105;23;20047;-81
2023/06/29 11:34:45;;;;;;;22.30;13.93;;;;;;;;;;6205646;23;20078;-81
2023/06/29 11:37:12;;;;;;;23.50;14.90;;;;;;;;;;6204497;23;20327;-80
2023/06/29 11:39:38;;;;;;;23.23;15.80;;;;;;;;;;6205608;23;20040;-80
2023/06/29 11:42:08;;;;;;;25.63;16.67;;;;;;;;;;6205767;23;20027;-81
2023/06/29 11:44:34;;;;;;;23.40;14.98;;;;;;;;;;6208738;23;20042;-80
2023/06/29 11:47:00;;;;;;;24.17;15.82;;;;;;;;;;6206403;23;20047;-81
2023/06/29 11:49:26;;;;;;;22.80;15.30;;;;;;;;;;6205892;23;20442;-81
2023/06/29 11:51:53;;;;;;;24.15;15.07;;;;;;;;;;6206357;23;20428;-80
2023/06/29 11:54:19;;;;;;;21.00;14.50;;;;;;;;;;6205295;23;20017;-81
2023/06/29 11:56:45;;;;;;;23.00;15.02;;;;;;;;;;6208378;23;20290;-80
2023/06/29 11:59:12;;;;;;;21.98;15.07;;;;;;;;;;6208601;23;20056;-80
2023/06/29 12:01:41;;;;;;;25.20;14.63;;;;;;;;;;6181998;23;20013;-81
2023/06/29 12:04:08;;;;;;;24.88;15.43;;;;;;;;;;6206924;23;20506;-80
2023/06/29 12:06:35;;;;;;;25.00;17.02;;;;;;;;;;6208230;23;20020;-84
2023/06/29 12:09:09;;;;;;;24.80;16.92;;;;;;;;;;6208551;23;20020;-81
2023/06/29 12:11:35;;;;;;;22.55;14.80;;;;;;;;;;6207660;23;20020;-80
2023/06/29 12:14:02;;;;;;;23.90;15.00;;;;;;;;;;6207011;23;20012;-81
2023/06/29 12:16:28;;;;;;;23.35;14.73;;;;;;;;;;6208798;23;20106;-81
2023/06/29 12:18:54;;;;;;;20.75;13.70;;;;;;;;;;6206582;23;20079;-80
2023/06/29 12:21:21;;;;;;;21.52;14.50;;;;;;;;;;6205364;23;20012;-81
2023/06/29 12:23:47;;;;;;;22.85;14.38;;;;;;;;;;6203754;23;20082;-80
2023/06/29 12:26:14;;;;;;;22.40;14.55;;;;;;;;;;6207335;23;20364;-81
2023/06/29 12:28:40;;;;;;;20.20;14.90;;;;;;;;;;6208008;23;20088;-80
2023/06/29 12:31:07;;;;;;;21.60;14.75;;;;;;;;;;6181242;23;20021;-80
2023/06/29 12:33:33;;;;;;;19.45;14.05;;;;;;;;;;6206998;23;20017;-81
2023/06/29 12:35:59;;;;;;;25.45;16.23;;;;;;;;;;6201527;23;20025;-81
2023/06/29 12:38:25;;;;;;;19.15;13.32;;;;;;;;;;6204353;23;20024;-81
2023/06/29 12:40:51;;;;;;;25.35;15.73;;;;;;;;;;6205170;23;20027;-81
2023/06/29 12:43:17;;;;;;;22.85;15.35;;;;;;;;;;6205307;23;20024;-81
2023/06/29 12:45:43;;;;;;;23.23;14.48;;;;;;;;;;6204696;23;20027;-80
2023/06/29 12:48:09;;;;;;;24.42;15.63;;;;;;;;;;6204750;23;20055;-83
2023/06/29 12:50:35;;;;;;;25.52;15.20;;;;;;;;;;6207623;23;20012;-81
2023/06/29 12:53:01;;;;;;;23.25;14.35;;;;;;;;;;6204897;23;20021;-81
2023/06/29 12:55:27;;;;;;;25.13;14.75;;;;;;;;;;6204947;23;20028;-80
2023/06/29 12:57:53;;;;;;;20.38;13.63;;;;;;;;;;6205651;23;20354;-80
2023/06/29 13:00:20;;;;;;;22.13;14.40;;;;;;;;;;6205210;23;20056;-80
2023/06/29 13:02:47;;;;;;;24.58;15.48;;;;;;;;;;6207269;23;20442;-82
2023/06/29 13:05:14;;;;;;;23.92;16.08;;;;;;;;;;6206233;23;20013;-79
2023/06/29 13:07:40;;;;;;;25.17;16.05;;;;;;;;;;6205549;23;20013;-79
2023/06/29 13:10:06;;;;;;;27.08;15.55;;;;;;;;;;6207979;23;20013;-80
2023/06/29 13:12:32;;;;;;;27.55;17.08;;;;;;;;;;6207074;23;20012;-81
2023/06/29 13:14:58;;;;;;;25.73;15.65;;;;;;;;;;6206757;23;20176;-80
2023/06/29 13:17:25;;;;;;;23.75;16.27;;;;;;;;;;6202446;23;20035;-80
2023/06/29 13:19:51;;;;;;;22.27;14.43;;;;;;;;;;6205081;23;20330;-80
2023/06/29 13:22:20;;;;;;;23.70;14.70;;;;;;;;;;6203889;23;20048;-80
2023/06/29 13:24:47;;;;;;;23.77;15.77;;;;;;;;;;6206610;23;20015;-79
2023/06/29 13:27:13;;;;;;;25.75;15.80;;;;;;;;;;6206286;23;20393;-80
2023/06/29 13:29:39;;;;;;;22.83;13.15;;;;;;;;;;6207991;23;20017;-80
2023/06/29 13:32:05;;;;;;;21.55;14.70;;;;;;;;;;6206124;23;20020;-80
2023/06/29 13:34:31;;;;;;;22.75;13.43;;;;;;;;;;6206944;23;20059;-80
2023/06/29 13:36:57;;;;;;;25.20;17.73;;;;;;;;;;6205451;23;20025;-80
2023/06/29 13:39:23;;;;;;;21.33;14.40;;;;;;;;;;6203382;23;20025;-80
2023/06/29 13:41:49;;;;;;;22.85;14.05;;;;;;;;;;6205689;23;20021;-80
2023/06/29 13:44:16;;;;;;;23.52;14.40;;;;;;;;;;6179586;23;20062;-81
2023/06/29 13:46:44;;;;;;;22.63;14.57;;;;;;;;;;6205180;23;20008;-83
2023/06/29 13:49:10;;;;;;;19.92;13.30;;;;;;;;;;6204701;23;20327;-80
2023/06/29 13:51:36;;;;;;;20.35;14.43;;;;;;;;;;6205223;23;20031;-82
2023/06/29 13:54:03;;;;;;;22.10;13.57;;;;;;;;;;6206230;23;20320;-80
2023/06/29 13:56:37;;;;;;;21.50;13.48;;;;;;;;;;6204408;23;20013;-79
2023/06/29 13:59:06;;;;;;;20.27;13.13;;;;;;;;;;6208050;23;20406;-80
2023/06/29 14:01:33;;;;;;;20.20;14.55;;;;;;;;;;6205364;23;20024;-80
2023/06/29 14:04:00;;;;;;;18.08;12.85;;;;;;;;;;6203677;23;20067;-80
2023/06/29 14:06:26;;;;;;;22.08;13.18;;;;;;;;;;6204863;23;20012;-82
2023/06/29 14:08:52;;;;;;;17.15;9.27;;;;;;;;;;6206971;23;20122;-87
2023/06/29 14:11:18;;;;;;;15.68;9.73;;;;;;;;;;6207964;23;20384;-82
2023/06/29 14:13:45;;;;;;;16.98;10.43;;;;;;;;;;6207378;23;20016;-83
2023/06/29 14:16:11;;;;;;;15.10;9.77;;;;;;;;;;6206419;23;20066;-81